createdAt,value
2022-09-14T00:01:30.430Z,4.68
2022-09-14T00:04:00.604Z,5.03
2022-09-14T00:06:28.957Z,5.40
2022-09-14T00:08:58.276Z,4.73
2022-09-14T00:11:27.290Z,5.28
2022-09-14T00:13:56.278Z,4.38
2022-09-14T00:16:28.947Z,6.88
2022-09-14T00:19:01.803Z,5.85
2022-09-14T00:21:28.944Z,4.00
2022-09-14T00:23:55.819Z,4.32
2022-09-14T00:26:23.750Z,4.70
2022-09-14T00:28:52.867Z,4.40
2022-09-14T00:31:21.405Z,6.55
2022-09-14T00:33:50.420Z,5.75
2022-09-14T00:36:21.373Z,4.43
2022-09-14T00:38:48.978Z,4.68
2022-09-14T00:41:19.102Z,5.13
2022-09-14T00:44:02.817Z,7.05
2022-09-14T00:46:31.984Z,7.13
2022-09-14T00:49:01.128Z,5.45
2022-09-14T00:51:30.802Z,4.55
2022-09-14T00:53:58.063Z,4.70
2022-09-14T00:56:25.815Z,5.45
2022-09-14T00:58:55.012Z,4.32
2022-09-14T01:01:21.916Z,6.53
2022-09-14T01:03:48.993Z,4.50
2022-09-14T01:06:39.292Z,6.18
2022-09-14T01:09:35.862Z,5.90
2022-09-14T01:12:24.543Z,6.68
2022-09-14T01:14:58.651Z,7.28
2022-09-14T01:17:37.251Z,6.65
2022-09-14T01:20:16.685Z,7.25
2022-09-14T01:23:04.041Z,7.03
2022-09-14T01:25:46.091Z,6.95
2022-09-14T01:28:37.834Z,6.70
2022-09-14T01:31:11.751Z,7.70
2022-09-14T01:33:47.706Z,7.15
2022-09-14T01:36:16.286Z,12.25
2022-09-14T01:38:50.738Z,6.75
2022-09-14T01:41:23.654Z,6.50
2022-09-14T01:43:55.671Z,7.05
2022-09-14T01:46:40.713Z,11.38
2022-09-14T01:49:15.062Z,10.32
2022-09-14T01:51:47.802Z,15.55
2022-09-14T01:54:20.837Z,9.52
2022-09-14T01:57:23.485Z,9.15
2022-09-14T01:59:55.994Z,7.43
2022-09-14T02:02:29.011Z,6.70
2022-09-14T02:05:22.773Z,8.32
2022-09-14T02:07:49.837Z,7.22
2022-09-14T02:10:17.912Z,7.28
2022-09-14T02:12:45.511Z,8.18
2022-09-14T02:15:15.131Z,11.45
2022-09-14T02:17:42.422Z,10.07
2022-09-14T02:20:14.750Z,7.43
2022-09-14T02:22:42.417Z,7.20
2022-09-14T02:25:09.543Z,9.38
2022-09-14T02:27:36.352Z,10.40
2022-09-14T02:30:03.621Z,12.95
2022-09-14T02:32:52.010Z,10.05
2022-09-14T02:35:21.657Z,9.63
2022-09-14T02:38:02.000Z,12.45
2022-09-14T02:40:47.197Z,9.68
2022-09-14T02:43:24.409Z,10.30
2022-09-14T02:46:28.816Z,9.57
2022-09-14T02:49:37.094Z,12.52
2022-09-14T02:52:15.413Z,10.30
2022-09-14T02:55:00.323Z,10.23
2022-09-14T02:57:27.176Z,9.13
2022-09-14T02:59:55.182Z,8.95
2022-09-14T03:02:22.691Z,11.25
2022-09-14T03:04:49.674Z,12.02
2022-09-14T03:07:16.625Z,11.45
2022-09-14T03:09:43.592Z,15.65
2022-09-14T03:12:10.436Z,11.18
2022-09-14T03:14:37.319Z,11.02
2022-09-14T03:17:04.266Z,9.43
2022-09-14T03:19:31.181Z,8.65
2022-09-14T03:21:58.754Z,11.82
2022-09-14T03:24:25.642Z,8.75
2022-09-14T03:26:52.541Z,13.73
2022-09-14T03:29:19.477Z,11.18
2022-09-14T03:31:46.413Z,9.25
2022-09-14T03:34:13.408Z,8.30
2022-09-14T03:36:40.284Z,8.25
2022-09-14T03:39:07.115Z,9.75
2022-09-14T03:41:33.979Z,10.23
2022-09-14T03:44:00.850Z,14.98
2022-09-14T03:46:27.806Z,10.20
2022-09-14T03:48:55.887Z,10.05
2022-09-14T03:51:25.849Z,12.20
2022-09-14T03:53:52.889Z,10.70
2022-09-14T03:56:21.782Z,11.45
2022-09-14T03:58:49.765Z,10.00
2022-09-14T04:01:19.879Z,11.40
2022-09-14T04:03:47.575Z,10.00
2022-09-14T04:06:16.215Z,10.73
2022-09-14T04:08:44.774Z,8.10
2022-09-14T04:11:23.535Z,10.60
2022-09-14T04:13:51.328Z,14.07
2022-09-14T04:16:21.044Z,10.85
2022-09-14T04:18:48.384Z,12.55
2022-09-14T04:21:18.318Z,12.23
2022-09-14T04:24:12.686Z,18.73
2022-09-14T04:26:33.444Z,12.80
2022-09-14T04:29:00.625Z,12.27
2022-09-14T04:31:27.559Z,14.70
2022-09-14T04:33:56.604Z,12.63
2022-09-14T04:36:29.533Z,15.57
2022-09-14T04:38:58.587Z,18.70
2022-09-14T04:41:26.427Z,20.95
2022-09-14T04:43:54.442Z,15.80
2022-09-14T04:46:24.242Z,16.00
2022-09-14T04:48:51.673Z,27.00
2022-09-14T04:51:21.361Z,13.32
2022-09-14T04:53:52.049Z,9.85
2022-09-14T04:56:21.883Z,18.33
2022-09-14T04:58:52.096Z,10.32
2022-09-14T05:01:22.110Z,12.52
2022-09-14T05:03:49.663Z,8.05
2022-09-14T05:06:25.019Z,11.05
2022-09-14T05:08:53.011Z,14.48
2022-09-14T05:11:22.331Z,19.85
2022-09-14T05:16:23.727Z,11.93
2022-09-14T05:18:52.295Z,11.98
2022-09-14T05:21:21.306Z,15.75
2022-09-14T05:23:52.851Z,15.82
2022-09-14T05:26:19.928Z,23.98
2022-09-14T05:28:54.623Z,17.75
2022-09-14T05:31:24.205Z,10.80
2022-09-14T05:33:51.636Z,19.85
2022-09-14T05:36:19.009Z,45.92
2022-09-14T05:38:45.993Z,19.48
2022-09-14T05:41:14.617Z,16.58
2022-09-14T05:43:42.210Z,13.68
2022-09-14T05:46:14.521Z,18.73
2022-09-14T05:48:41.934Z,14.68
2022-09-14T05:51:17.730Z,17.13
2022-09-14T05:53:49.683Z,16.75
2022-09-14T05:56:18.043Z,11.27
2022-09-14T05:58:45.484Z,13.73
2022-09-14T06:01:20.586Z,14.32
2022-09-14T06:03:48.380Z,16.65
2022-09-14T06:06:18.436Z,10.68
2022-09-14T06:08:45.668Z,9.70
2022-09-14T06:11:15.659Z,8.52
2022-09-14T06:13:43.904Z,9.73
2022-09-14T06:16:13.894Z,10.98
2022-09-14T06:18:42.269Z,10.52
2022-09-14T06:21:11.019Z,12.00
2022-09-14T06:23:38.523Z,9.77
2022-09-14T06:26:05.983Z,9.82
2022-09-14T06:28:34.035Z,8.32
2022-09-14T06:31:03.582Z,10.70
2022-09-14T06:33:31.646Z,11.25
2022-09-14T06:36:03.235Z,7.57
2022-09-14T06:38:31.069Z,12.68
2022-09-14T06:41:00.085Z,8.77
2022-09-14T06:43:28.958Z,15.98
2022-09-14T06:46:00.832Z,9.10
2022-09-14T06:48:29.888Z,8.57
2022-09-14T06:50:57.325Z,9.30
2022-09-14T06:53:24.820Z,9.50
2022-09-14T06:55:51.955Z,8.95
2022-09-14T06:58:19.176Z,10.75
2022-09-14T07:00:46.149Z,7.57
2022-09-14T07:03:13.095Z,10.82
2022-09-14T07:05:40.009Z,9.98
2022-09-14T07:08:11.432Z,7.70
2022-09-14T07:10:39.033Z,8.02
2022-09-14T07:13:06.002Z,8.35
2022-09-14T07:15:33.587Z,6.45
2022-09-14T07:18:00.663Z,10.30
2022-09-14T07:20:27.890Z,10.82
2022-09-14T07:22:55.762Z,10.82
2022-09-14T07:25:22.643Z,7.18
2022-09-14T07:27:49.524Z,9.23
2022-09-14T07:30:16.704Z,7.47
2022-09-14T07:32:43.543Z,16.23
2022-09-14T07:35:10.436Z,9.95
2022-09-14T07:37:37.271Z,9.50
2022-09-14T07:40:04.569Z,7.60
2022-09-14T07:42:32.138Z,6.35
2022-09-14T07:44:59.002Z,8.57
2022-09-14T07:47:25.929Z,9.05
2022-09-14T07:49:53.028Z,9.52
2022-09-14T07:52:19.914Z,11.25
2022-09-14T07:54:47.083Z,7.05
2022-09-14T07:57:13.906Z,9.63
2022-09-14T07:59:40.738Z,8.98
2022-09-14T08:02:09.115Z,11.70
2022-09-14T08:04:36.385Z,9.65
2022-09-14T08:07:03.978Z,9.82
2022-09-14T08:09:30.887Z,7.03
2022-09-14T08:11:58.143Z,8.55
2022-09-14T08:14:25.266Z,11.30
2022-09-14T08:16:52.572Z,7.25
2022-09-14T08:19:21.121Z,9.38
2022-09-14T08:21:49.018Z,7.75
2022-09-14T08:24:18.359Z,7.32
2022-09-14T08:26:46.341Z,6.43
2022-09-14T08:29:14.796Z,6.90
2022-09-14T08:31:43.360Z,7.25
2022-09-14T08:34:10.242Z,8.13
2022-09-14T08:36:39.626Z,9.35
2022-09-14T08:39:09.623Z,8.43
2022-09-14T08:42:00.237Z,7.63
2022-09-14T08:44:47.034Z,8.30
2022-09-14T08:47:28.737Z,7.45
2022-09-14T08:50:02.969Z,8.65
2022-09-14T08:52:44.680Z,10.60
2022-09-14T08:55:17.426Z,7.93
2022-09-14T08:57:49.143Z,8.38
2022-09-14T09:00:20.994Z,8.45
2022-09-14T09:03:09.525Z,7.60
2022-09-14T09:05:39.749Z,7.55
2022-09-14T09:08:09.312Z,11.43
2022-09-14T09:10:40.303Z,6.95
2022-09-14T09:13:10.854Z,13.07
2022-09-14T09:15:45.918Z,10.68
2022-09-14T09:18:19.273Z,9.65
2022-09-14T09:20:52.764Z,10.43
2022-09-14T09:23:24.654Z,6.82
2022-09-14T09:25:54.282Z,9.05
2022-09-14T09:28:24.007Z,7.45
2022-09-14T09:30:53.295Z,9.45
2022-09-14T09:33:27.554Z,4.90
2022-09-14T09:36:18.451Z,6.03
2022-09-14T09:38:45.354Z,4.55
2022-09-14T09:41:17.958Z,12.27
2022-09-14T09:43:59.100Z,6.10
2022-09-14T09:46:41.791Z,5.95
2022-09-14T09:49:26.790Z,4.10
2022-09-14T09:51:55.302Z,7.97
2022-09-14T09:54:28.358Z,7.57
2022-09-14T09:57:01.147Z,6.05
2022-09-14T09:59:38.398Z,5.45
2022-09-14T10:02:29.409Z,7.63
2022-09-14T10:04:56.749Z,6.53
2022-09-14T10:07:23.969Z,4.68
2022-09-14T10:10:14.190Z,5.10
2022-09-14T10:12:48.323Z,5.70
2022-09-14T10:15:27.309Z,5.40
2022-09-14T10:18:09.546Z,5.90
2022-09-14T10:20:39.439Z,4.32
2022-09-14T10:23:18.327Z,7.40
2022-09-14T10:25:49.918Z,10.85
2022-09-14T10:28:26.176Z,5.38
2022-09-14T10:31:07.476Z,4.85
2022-09-14T10:33:35.448Z,3.63
2022-09-14T10:36:11.539Z,3.70
2022-09-14T10:39:21.997Z,3.60
2022-09-14T10:41:57.849Z,2.72
2022-09-14T10:44:46.230Z,3.53
2022-09-14T10:50:06.697Z,2.63
2022-09-14T10:52:59.223Z,2.42
2022-09-14T10:55:35.697Z,1.25
2022-09-14T10:58:33.882Z,1.88
2022-09-14T11:01:54.596Z,0.40
2022-09-14T11:04:28.104Z,0.75
2022-09-14T11:07:08.095Z,2.22
2022-09-14T11:09:41.169Z,1.33
2022-09-14T11:12:18.639Z,3.50
2022-09-14T11:15:21.295Z,4.00
2022-09-14T11:18:17.601Z,2.55
2022-09-14T11:20:58.722Z,2.40
2022-09-14T11:23:45.977Z,2.08
2022-09-14T11:26:23.799Z,0.70
2022-09-14T11:28:55.321Z,4.85
2022-09-14T11:31:55.328Z,1.80
2022-09-14T11:34:47.756Z,2.10
2022-09-14T11:37:18.279Z,2.05
2022-09-14T11:40:14.119Z,0.82
2022-09-14T11:43:03.947Z,1.10
2022-09-14T11:45:59.762Z,1.58
2022-09-14T11:48:51.195Z,2.00
2022-09-14T11:51:49.531Z,1.00
2022-09-14T11:54:19.885Z,1.90
2022-09-14T11:56:50.015Z,1.35
2022-09-14T11:59:35.852Z,3.33
2022-09-14T12:02:30.420Z,1.95
2022-09-14T12:05:06.551Z,1.15
2022-09-14T12:07:58.319Z,2.95
2022-09-14T12:10:25.503Z,3.65
2022-09-14T12:12:58.549Z,2.67
2022-09-14T12:15:25.353Z,2.65
2022-09-14T12:17:55.364Z,2.25
2022-09-14T12:20:34.364Z,3.47
2022-09-14T12:23:24.342Z,1.58
2022-09-14T12:25:55.914Z,2.72
2022-09-14T12:28:40.256Z,2.25
2022-09-14T12:31:30.632Z,1.42
2022-09-14T12:34:19.390Z,2.75
2022-09-14T12:36:46.166Z,2.30
2022-09-14T12:39:34.252Z,2.33
2022-09-14T12:42:05.365Z,2.35
2022-09-14T12:44:43.461Z,1.42
2022-09-14T12:47:25.353Z,0.65
2022-09-14T12:49:57.971Z,2.35
2022-09-14T12:52:54.744Z,2.33
2022-09-14T12:55:33.743Z,1.63
2022-09-14T12:58:21.905Z,1.25
2022-09-14T13:03:48.873Z,3.90
2022-09-14T13:06:17.667Z,0.45
2022-09-14T13:08:47.731Z,1.50
2022-09-14T13:11:24.881Z,1.92
2022-09-14T13:13:51.786Z,1.45
2022-09-14T13:16:42.083Z,2.45
2022-09-14T13:19:29.341Z,2.63
2022-09-14T13:21:58.916Z,1.25
2022-09-14T13:24:38.902Z,3.13
2022-09-14T13:27:11.841Z,2.10
2022-09-14T13:29:38.773Z,3.22
2022-09-14T13:32:06.879Z,1.55
2022-09-14T13:34:38.825Z,1.73
2022-09-14T13:37:06.414Z,2.08
2022-09-14T13:39:38.811Z,1.08
2022-09-14T13:42:06.793Z,4.65
2022-09-14T13:44:45.466Z,2.08
2022-09-14T13:47:31.157Z,0.60
2022-09-14T13:49:58.516Z,2.83
2022-09-14T13:52:43.046Z,1.45
2022-09-14T13:55:48.755Z,1.23
2022-09-14T13:58:23.874Z,1.30
2022-09-14T14:01:04.174Z,3.08
2022-09-14T14:03:46.770Z,3.90
2022-09-14T14:06:30.481Z,2.20
2022-09-14T14:09:05.152Z,1.08
2022-09-14T14:11:36.695Z,2.15
2022-09-14T14:14:14.033Z,4.78
2022-09-14T14:16:41.255Z,1.87
2022-09-14T14:19:27.887Z,3.67
2022-09-14T14:22:14.598Z,3.08
2022-09-14T14:25:09.136Z,1.85
2022-09-14T14:27:37.779Z,2.85
2022-09-14T14:30:15.122Z,2.42
2022-09-14T14:32:42.042Z,3.33
2022-09-14T14:35:17.520Z,2.00
2022-09-14T14:37:45.067Z,1.05
2022-09-14T14:40:12.918Z,2.00
2022-09-14T14:42:40.645Z,2.05
2022-09-14T14:45:19.055Z,2.80
2022-09-14T14:47:47.542Z,4.03
2022-09-14T14:52:42.903Z,2.25
2022-09-14T14:55:10.724Z,3.15
2022-09-14T14:57:39.082Z,0.82
2022-09-14T15:02:34.563Z,11.32
2022-09-14T15:05:01.402Z,3.47
2022-09-14T15:07:28.430Z,2.25
2022-09-14T15:09:57.847Z,3.83
2022-09-14T15:12:24.780Z,3.58
2022-09-14T15:14:51.878Z,2.38
2022-09-14T15:17:19.203Z,3.83
2022-09-14T15:19:46.149Z,2.05
2022-09-14T15:22:14.413Z,3.35
2022-09-14T15:24:41.349Z,2.03
2022-09-14T15:27:08.471Z,2.05
2022-09-14T15:29:35.326Z,1.70
2022-09-14T15:32:02.772Z,2.92
2022-09-14T15:34:29.719Z,1.03
2022-09-14T15:36:57.749Z,5.80
2022-09-14T15:39:31.719Z,2.50
2022-09-14T15:41:59.065Z,5.50
2022-09-14T15:44:26.274Z,2.17
2022-09-14T15:46:53.249Z,2.03
2022-09-14T15:49:22.293Z,4.25
2022-09-14T15:51:51.957Z,2.45
2022-09-14T15:54:23.136Z,5.22
2022-09-14T15:56:52.450Z,1.83
2022-09-14T15:59:20.265Z,1.20
2022-09-14T16:01:47.644Z,3.90
2022-09-14T16:04:15.106Z,3.08
2022-09-14T16:06:42.234Z,6.03
2022-09-14T16:09:11.369Z,1.48
2022-09-14T16:11:39.271Z,2.38
2022-09-14T16:14:07.780Z,3.50
2022-09-14T16:19:14.509Z,5.30
2022-09-14T16:21:42.638Z,3.95
2022-09-14T16:24:16.243Z,4.13
2022-09-14T16:26:43.657Z,2.70
2022-09-14T16:29:13.653Z,4.50
2022-09-14T16:31:42.503Z,5.90
2022-09-14T16:34:13.736Z,5.25
2022-09-14T16:36:41.702Z,7.55
2022-09-14T16:39:11.712Z,6.47
2022-09-14T16:41:40.742Z,7.28
2022-09-14T16:44:11.923Z,7.57
2022-09-14T16:46:39.045Z,8.48
2022-09-14T16:49:06.386Z,11.77
2022-09-14T16:51:34.048Z,7.00
2022-09-14T16:54:01.151Z,6.87
2022-09-14T16:56:31.926Z,9.52
2022-09-14T16:59:00.042Z,7.53
2022-09-14T17:01:36.449Z,4.47
2022-09-14T17:04:10.141Z,6.47
2022-09-14T17:06:39.413Z,9.80
2022-09-14T17:09:09.808Z,13.10
2022-09-14T17:11:38.536Z,6.15
2022-09-14T17:14:06.417Z,5.85
2022-09-14T17:16:34.060Z,4.32
2022-09-14T17:19:03.314Z,5.82
2022-09-14T17:21:33.046Z,4.20
2022-09-14T17:24:00.960Z,6.38
2022-09-14T17:26:28.131Z,5.90
2022-09-14T17:28:57.092Z,4.07
2022-09-14T17:31:27.603Z,13.05
2022-09-14T17:33:55.990Z,10.40
2022-09-14T17:36:22.963Z,7.95
2022-09-14T17:38:50.250Z,12.13
2022-09-14T17:41:23.480Z,5.20
2022-09-14T17:43:55.693Z,18.20
2022-09-14T17:46:22.883Z,8.38
2022-09-14T17:48:51.268Z,8.50
2022-09-14T17:51:26.107Z,5.65
2022-09-14T17:53:55.503Z,16.65
2022-09-14T17:56:24.470Z,5.50
2022-09-14T17:59:08.520Z,8.35
2022-09-14T18:01:35.915Z,12.23
2022-09-14T18:04:05.953Z,9.65
2022-09-14T18:06:35.934Z,9.75
2022-09-14T18:09:06.294Z,9.48
2022-09-14T18:11:33.659Z,6.65
2022-09-14T18:14:00.711Z,8.73
2022-09-14T18:16:27.990Z,8.23
2022-09-14T18:18:57.737Z,9.73
2022-09-14T18:21:25.853Z,11.23
2022-09-14T18:23:54.694Z,6.93
2022-09-14T18:28:51.275Z,9.80
2022-09-14T18:31:19.906Z,6.15
2022-09-14T18:33:52.434Z,10.95
2022-09-14T18:36:20.833Z,13.93
2022-09-14T18:38:48.787Z,10.07
2022-09-14T18:41:17.501Z,6.77
2022-09-14T18:43:46.661Z,3.88
2022-09-14T18:46:14.709Z,9.95
2022-09-14T18:48:44.755Z,8.55
2022-09-14T18:51:13.790Z,11.02
2022-09-14T18:53:40.806Z,7.85
2022-09-14T18:56:10.447Z,6.70
2022-09-14T18:58:39.789Z,11.65
2022-09-14T19:01:08.402Z,10.15
2022-09-14T19:03:37.535Z,9.68
2022-09-14T19:06:13.154Z,9.88
2022-09-14T19:08:40.878Z,12.27
2022-09-14T19:11:10.794Z,7.80
2022-09-14T19:13:38.377Z,10.93
2022-09-14T19:16:11.362Z,11.40
2022-09-14T19:18:38.710Z,8.20
2022-09-14T19:21:07.636Z,11.02
2022-09-14T19:23:35.658Z,7.68
2022-09-14T19:26:08.128Z,11.88
2022-09-14T19:28:35.826Z,13.82
2022-09-14T19:31:12.493Z,8.05
2022-09-14T19:33:45.068Z,7.78
2022-09-14T19:36:20.045Z,9.65
2022-09-14T19:38:48.326Z,10.15
2022-09-14T19:41:16.183Z,6.20
2022-09-14T19:43:43.362Z,8.50
2022-09-14T19:46:14.478Z,11.60
2022-09-14T19:48:42.126Z,10.98
2022-09-14T19:51:14.816Z,11.45
2022-09-14T19:53:42.796Z,10.65
2022-09-14T19:56:13.224Z,5.03
2022-09-14T19:58:43.018Z,10.48
2022-09-14T20:01:10.843Z,5.07
2022-09-14T20:03:39.083Z,7.32
2022-09-14T20:06:08.950Z,5.45
2022-09-14T20:08:36.689Z,8.85
2022-09-14T20:11:08.575Z,7.00
2022-09-14T20:13:36.879Z,7.40
2022-09-14T20:16:16.203Z,4.45
2022-09-14T20:18:43.717Z,6.22
2022-09-14T20:21:12.739Z,7.10
2022-09-14T20:23:52.469Z,4.78
2022-09-14T20:26:29.066Z,9.35
2022-09-14T20:31:23.981Z,7.22
2022-09-14T20:33:51.194Z,8.00
2022-09-14T20:36:20.779Z,8.05
2022-09-14T20:38:51.928Z,9.18
2022-09-14T20:41:18.943Z,6.05
2022-09-14T20:43:49.564Z,10.93
2022-09-14T20:46:26.569Z,7.70
2022-09-14T20:48:54.315Z,6.57
2022-09-14T20:51:22.883Z,5.28
2022-09-14T20:53:49.946Z,8.43
2022-09-14T20:56:22.486Z,10.32
2022-09-14T20:58:52.936Z,10.48
2022-09-14T21:01:21.458Z,9.45
2022-09-14T21:03:50.006Z,5.18
2022-09-14T21:06:23.108Z,7.30
2022-09-14T21:08:50.148Z,10.65
2022-09-14T21:11:22.138Z,6.10
2022-09-14T21:13:50.181Z,8.70
2022-09-14T21:16:20.492Z,6.65
2022-09-14T21:18:51.554Z,10.75
2022-09-14T21:21:19.831Z,7.70
2022-09-14T21:23:48.821Z,6.47
2022-09-14T21:28:42.766Z,8.60
2022-09-14T21:31:21.098Z,9.18
2022-09-14T21:33:50.501Z,6.43
2022-09-14T21:36:24.836Z,5.55
2022-09-14T21:38:53.886Z,8.52
2022-09-14T21:41:23.493Z,4.53
2022-09-14T21:43:51.019Z,6.80
2022-09-14T21:46:18.627Z,6.75
2022-09-14T21:48:45.530Z,9.07
2022-09-14T21:51:27.946Z,8.00
2022-09-14T21:53:57.724Z,10.98
2022-09-14T21:56:27.024Z,8.98
2022-09-14T21:58:56.562Z,9.85
2022-09-14T22:01:24.504Z,7.95
2022-09-14T22:03:53.151Z,6.17
2022-09-14T22:06:24.483Z,14.20
2022-09-14T22:08:52.650Z,13.35
2022-09-14T22:11:25.415Z,10.35
2022-09-14T22:13:57.194Z,8.75
2022-09-14T22:16:25.270Z,10.73
2022-09-14T22:18:55.212Z,12.90
2022-09-14T22:21:23.559Z,13.25
2022-09-14T22:23:59.278Z,16.10
2022-09-14T22:26:28.748Z,10.68
2022-09-14T22:28:57.412Z,12.32
2022-09-14T22:31:25.700Z,11.60
2022-09-14T22:33:54.655Z,10.82
2022-09-14T22:38:48.441Z,12.05
2022-09-14T22:41:18.345Z,9.88
2022-09-14T22:43:45.976Z,11.15
2022-09-14T22:46:13.521Z,10.50
2022-09-14T22:48:41.027Z,12.98
2022-09-14T22:51:10.731Z,9.60
2022-09-14T22:53:38.293Z,11.15
2022-09-14T22:56:19.885Z,10.35
2022-09-14T22:58:47.790Z,13.80
2022-09-14T23:01:17.806Z,11.82
2022-09-14T23:03:45.320Z,13.73
2022-09-14T23:06:12.682Z,10.77
2022-09-14T23:08:40.275Z,10.02
2022-09-14T23:11:10.961Z,13.00
2022-09-14T23:13:41.892Z,14.50
2022-09-14T23:16:14.028Z,13.02
2022-09-14T23:18:41.223Z,9.93
2022-09-14T23:21:08.803Z,12.95
2022-09-14T23:23:36.603Z,10.88
2022-09-14T23:26:07.141Z,12.25
2022-09-14T23:28:34.310Z,11.13
2022-09-14T23:31:01.370Z,11.63
2022-09-14T23:33:29.226Z,11.70
2022-09-14T23:35:56.412Z,10.68
2022-09-14T23:38:24.194Z,11.30
2022-09-14T23:40:51.511Z,11.80
2022-09-14T23:43:19.475Z,12.82
2022-09-14T23:45:47.362Z,10.68
2022-09-14T23:48:15.154Z,13.52
2022-09-14T23:50:42.475Z,12.13
2022-09-14T23:53:09.427Z,8.32
2022-09-14T23:55:36.914Z,10.38
2022-09-14T23:58:03.869Z,13.00
